Flight Track Log - Related Links

Times and Time Zones

All times are in EDT time to prevent confusion due to time zone crossing. See the VH-AHH flight status page for this flight to view local times or setup timezone preferences in your user account.

Time Position Orientation Groundspeed Altitude Reporting Facility
EDT Latitude Longitude Course Direction KTS MPH feet Rate Location/Type
Wed 12:15:19 AM -33.8589 148.6484 51° Northeast 88 101 3,100  Level Aus ATC (RADAR)
Wed 12:15:34 AM -33.8536 148.6562 51° Northeast 96 110 3,200 703 Climbing Aus ATC (RADAR)
Wed 12:17:44 AM -33.8528 148.7247 89° East 95 109 4,800 735 Climbing Aus ATC (RADAR)
Wed 12:18:09 AM -33.8529 148.7375 90° East 93 107 5,100 840 Climbing Aus ATC (RADAR)
Wed 12:18:34 AM -33.8531 148.7516 91° East 97 112 5,500 800 Climbing Aus ATC (RADAR)
Wed 12:19:09 AM -33.8576 148.7703 106° East 100 115 5,900 725 Climbing Aus ATC (RADAR)
Wed 12:20:05 AM -33.8703 148.7967 120° Southeast 106 122 6,600 600 Climbing Aus ATC (RADAR)
Wed 12:20:39 AM -33.8791 148.8142 121° Southeast 104 120 6,800 607 Climbing Aus ATC (RADAR)
Wed 12:21:34 AM -33.8935 148.8433 121° Southeast 108 124 7,500 686 Climbing Aus ATC (RADAR)
Wed 12:21:49 AM -33.8970 148.8523 115° Southeast 112 129 7,600 424 Climbing Aus ATC (RADAR)
Wed 12:23:13 AM -33.9142 148.9062 111° Southeast 129 148 8,200 364 Climbing Aus ATC (RADAR)
Wed 12:23:28 AM -33.9184 148.9169 115° Southeast 135 155 8,200 360 Level Aus ATC (RADAR)
Wed 12:24:03 AM -33.9275 148.9398 116° Southeast 130 150 8,500 450 Climbing Aus ATC (RADAR)
Wed 12:24:48 AM -33.9355 148.9694 108° East 123 142 8,800 424 Climbing Aus ATC (RADAR)
Wed 12:25:28 AM -33.9416 148.9969 105° East 126 145 9,100 267 Climbing Aus ATC (RADAR)
Wed 12:26:18 AM -33.9509 149.0360 106° East 141 162 9,200 92 Climbing Aus ATC (RADAR)
Wed 12:26:33 AM -33.9542 149.0481 108° East 144 166 9,200 -218 Level Aus ATC (RADAR)
Wed 12:27:13 AM -33.9598 149.0788 102° East 139 160 9,000 -60 Descending Aus ATC (RADAR)
Wed 12:28:13 AM -33.9661 149.1223 100° East 131 151 9,100 71 Climbing Aus ATC (RADAR)
Wed 12:28:38 AM -33.9706 149.1407 107° East 133 153 9,100  Level Aus ATC (RADAR)
Wed 12:29:18 AM -33.9777 149.1711 106° East 139 160 9,100  Level Aus ATC (RADAR)
Wed 12:30:04 AM -33.9854 149.2062 105° East 142 163 9,100  Level Aus ATC (RADAR)
Wed 12:30:33 AM -33.9897 149.2294 103° East 140 161 9,100  Level Aus ATC (RADAR)
Wed 12:31:08 AM -33.9936 149.2567 100° East 139 160 9,100  Level Aus ATC (RADAR)
Wed 12:31:42 AM -34.0013 149.2838 109° East 141 162 9,100  Level Aus ATC (RADAR)
Wed 12:32:18 AM -34.0059 149.3107 102° East 139 160 9,100  Level Aus ATC (RADAR)
Wed 12:33:27 AM -34.0189 149.3612 107° East 128 147 9,100 64 Level Aus ATC (RADAR)
Wed 12:33:52 AM -34.0231 149.3808 105° East 138 159 9,200 92 Climbing Aus ATC (RADAR)
Wed 12:34:32 AM -34.0302 149.4126 105° East 145 167 9,200 -80 Level Aus ATC (RADAR)
Wed 12:35:07 AM -34.0358 149.4403 104° East 143 165 9,100  Descending Aus ATC (RADAR)
Wed 12:35:47 AM -34.0429 149.4707 106° East 136 157 9,200  Climbing Aus ATC (RADAR)
Wed 12:36:17 AM -34.0478 149.4924 105° East 130 150 9,100 -80 Descending Aus ATC (RADAR)
Wed 12:37:02 AM -34.0542 149.5276 102° East 137 158 9,100  Level Aus ATC (RADAR)
Wed 12:38:07 AM -34.0686 149.5769 109° East 141 162 9,100  Level Aus ATC (RADAR)
Wed 12:38:37 AM -34.0877 149.5838 163° South 142 163 9,100  Level Aus ATC (RADAR)
Wed 12:39:01 AM -34.1026 149.5874 169° South 135 155 9,100  Level Aus ATC (RADAR)
Wed 12:39:36 AM -34.1231 149.5921 169° South 130 150 9,100  Level Aus ATC (RADAR)
Wed 12:40:21 AM -34.1492 149.6023 162° South 131 151 9,100 75 Level Aus ATC (RADAR)
Wed 12:40:56 AM -34.1698 149.6091 165° South 132 152 9,200 86 Climbing Aus ATC (RADAR)
Wed 12:41:31 AM -34.1910 149.6148 167° South 134 154 9,200 -75 Level Aus ATC (RADAR)
Wed 12:42:16 AM -34.2183 149.6198 171° South 133 153 9,100 -92 Descending Aus ATC (RADAR)
Wed 12:43:41 AM -34.2426 149.6813 116° Southeast 150 173 9,000  Descending Aus ATC (RADAR)
Wed 12:44:01 AM -34.2389 149.6967 73° East 144 166 9,100 109 Climbing Aus ATC (RADAR)
Wed 12:44:36 AM -34.2337 149.7231 77° East 137 158 9,100  Level Aus ATC (RADAR)
Wed 12:45:41 AM -34.2272 149.7740 81° East 139 160 9,100  Level Aus ATC (RADAR)
Wed 12:46:16 AM -34.2247 149.8019 84° East 141 162 9,100 -75 Level Aus ATC (RADAR)
Wed 12:47:01 AM -34.2194 149.8379 80° East 142 163 9,000 -240 Descending Aus ATC (RADAR)
Wed 12:47:31 AM -34.2168 149.8638 83° East 150 173 8,800 -420 Descending Aus ATC (RADAR)
Wed 12:48:41 AM -34.2092 149.9223 81° East 145 167 8,300 -357 Descending Aus ATC (RADAR)
Wed 12:48:55 AM -34.2067 149.9336 75° East 141 162 8,300 -333 Level Aus ATC (RADAR)
Wed 12:49:35 AM -34.2023 149.9651 80° East 139 160 8,000 -400 Descending Aus ATC (RADAR)
Wed 12:50:25 AM -34.1998 150.0065 86° East 145 167 7,700 -488 Descending Aus ATC (RADAR)
Wed 12:51:01 AM -34.1999 150.0368 90° East 150 173 7,300 -675 Descending Aus ATC (RADAR)
Wed 12:51:45 AM -34.1927 150.0715 76° East 135 155 6,800 -643 Descending Aus ATC (RADAR)
Wed 12:52:25 AM -34.1938 150.1043 92° East 140 161 6,400 -436 Descending Aus ATC (RADAR)
Wed 12:53:35 AM -34.1953 150.1585 92° East 132 152 6,000 -180 Descending Aus ATC (RADAR)
Wed 12:54:05 AM -34.1915 150.1787 77° East 124 143 6,100  Climbing Aus ATC (RADAR)
Wed 12:54:30 AM -34.1855 150.1950 66° East 125 144 6,000  Descending Aus ATC (RADAR)
Wed 12:55:20 AM -34.1698 150.2214 54° Northeast 114 131 6,100 -67 Climbing Aus ATC (RADAR)
Wed 12:56:00 AM -34.1562 150.2434 53° Northeast 122 140 5,900 71 Descending Aus ATC (RADAR)
Wed 12:56:45 AM -34.1415 150.2670 53° Northeast 116 133 6,200 -71 Climbing Aus ATC (RADAR)
Wed 12:57:25 AM -34.1328 150.2924 68° East 120 138 5,800 -144 Descending Aus ATC (RADAR)
Wed 12:58:50 AM -34.1323 150.3489 89° East 119 137 5,900 55 Climbing Aus ATC (RADAR)
Wed 12:59:15 AM -34.1444 150.3577 149° Southeast 120 138 5,900 -100 Level Aus ATC (RADAR)
Wed 12:59:50 AM -34.1544 150.3773 122° Southeast 116 133 5,800 -214 Descending Aus ATC (RADAR)
Wed 01:00:39 AM -34.1633 150.4139 106° East 131 151 5,600 -143 Descending Aus ATC (RADAR)
Wed 01:01:14 AM -34.1708 150.4358 112° Southeast 120 138 5,600 -424 Level Aus ATC (RADAR)
Wed 01:02:04 AM -34.1559 150.4605 54° Northeast 101 116 5,000 -720 Descending Aus ATC (RADAR)
Wed 01:02:29 AM -34.1466 150.4691 37° Northeast 98 113 4,700 -545 Descending Aus ATC (RADAR)
Wed 01:03:54 AM -34.1231 150.5112 56° Northeast 108 124 4,000 -522 Descending Aus ATC (RADAR)
Wed 01:04:24 AM -34.1144 150.5255 54° Northeast 104 120 3,700 -554 Descending Aus ATC (RADAR)
Wed 01:04:59 AM -34.1060 150.5439 61° Northeast 104 120 3,400 -525 Descending Aus ATC (RADAR)
Wed 01:05:44 AM -34.0965 150.5699 66° East 111 128 3,000 -675 Descending Aus ATC (RADAR)
Wed 01:06:19 AM -34.0868 150.5873 56° Northeast 105 121 2,500 -847 Descending Aus ATC (RADAR)
Wed 01:07:09 AM -34.0729 150.6112 55° Northeast 102 117 1,800 -720 Descending Aus ATC (RADAR)
Wed 01:07:34 AM -34.0671 150.6241 62° Northeast 102 117 1,600 -327 Descending Aus ATC (RADAR)
Wed 01:08:59 AM -34.0428 150.6633 53° Northeast 93 107 1,200 -218 Descending Aus ATC (RADAR)
Wed 01:09:24 AM -34.0373 150.6717 52° Northeast 79 91 1,200  Level Aus ATC (RADAR)
Wed 01:10:04 AM -34.0309 150.6871 63° Northeast 74 85 1,200 -80 Level Aus ATC (RADAR)
Wed 01:10:39 AM -34.0243 150.7001 59° Northeast 83 96 1,100 -522 Descending Aus ATC (RADAR)
Wed 01:11:13 AM -34.0339 150.6992 185° South 80 92 600 -778 Descending Aus ATC (RADAR)
Wed 01:11:33 AM -34.0362 150.6922 249° West 73 84 400 -600 Descending Aus ATC (RADAR)

Login

Don't have an account? Register now (free) for customized features, flight alerts, and more!